sensor_id;sensor_type;location;lat;lon;timestamp;P1;durP1;ratioP1;P2;durP2;ratioP2
69573;SDS011;62840;52.366;5.980;2023-04-15T00:00:28;6.15;;;3.45;;
69573;SDS011;62840;52.366;5.980;2023-04-15T00:02:54;5.72;;;3.22;;
69573;SDS011;62840;52.366;5.980;2023-04-15T00:05:25;7.00;;;3.13;;
69573;SDS011;62840;52.366;5.980;2023-04-15T00:07:52;5.90;;;3.08;;
69573;SDS011;62840;52.366;5.980;2023-04-15T00:10:17;6.30;;;2.80;;
69573;SDS011;62840;52.366;5.980;2023-04-15T00:12:46;6.07;;;3.17;;
69573;SDS011;62840;52.366;5.980;2023-04-15T00:15:15;7.90;;;2.97;;
69573;SDS011;62840;52.366;5.980;2023-04-15T00:17:42;6.35;;;3.38;;
69573;SDS011;62840;52.366;5.980;2023-04-15T00:20:10;6.82;;;3.38;;
69573;SDS011;62840;52.366;5.980;2023-04-15T00:22:38;7.53;;;3.00;;
69573;SDS011;62840;52.366;5.980;2023-04-15T00:25:04;5.53;;;3.20;;
69573;SDS011;62840;52.366;5.980;2023-04-15T00:27:30;6.00;;;2.65;;
69573;SDS011;62840;52.366;5.980;2023-04-15T00:30:02;6.63;;;2.85;;
69573;SDS011;62840;52.366;5.980;2023-04-15T00:32:32;6.60;;;3.17;;
69573;SDS011;62840;52.366;5.980;2023-04-15T00:34:57;7.32;;;2.92;;
69573;SDS011;62840;52.366;5.980;2023-04-15T00:37:23;6.43;;;3.03;;
69573;SDS011;62840;52.366;5.980;2023-04-15T00:39:52;8.00;;;2.55;;
69573;SDS011;62840;52.366;5.980;2023-04-15T00:42:18;5.20;;;2.83;;
69573;SDS011;62840;52.366;5.980;2023-04-15T00:44:44;6.75;;;2.85;;
69573;SDS011;62840;52.366;5.980;2023-04-15T00:47:14;6.35;;;3.22;;
69573;SDS011;62840;52.366;5.980;2023-04-15T00:49:44;5.78;;;2.95;;
69573;SDS011;62840;52.366;5.980;2023-04-15T00:52:12;6.90;;;3.20;;
69573;SDS011;62840;52.366;5.980;2023-04-15T00:54:38;5.07;;;2.88;;
69573;SDS011;62840;52.366;5.980;2023-04-15T00:57:04;6.05;;;2.88;;
69573;SDS011;62840;52.366;5.980;2023-04-15T00:59:30;5.25;;;2.63;;
69573;SDS011;62840;52.366;5.980;2023-04-15T01:01:57;6.07;;;2.67;;
69573;SDS011;62840;52.366;5.980;2023-04-15T01:04:24;5.25;;;2.40;;
69573;SDS011;62840;52.366;5.980;2023-04-15T01:06:53;7.10;;;2.88;;
69573;SDS011;62840;52.366;5.980;2023-04-15T01:09:20;7.43;;;2.97;;
69573;SDS011;62840;52.366;5.980;2023-04-15T01:11:46;7.07;;;2.67;;
69573;SDS011;62840;52.366;5.980;2023-04-15T01:14:12;5.25;;;2.75;;
69573;SDS011;62840;52.366;5.980;2023-04-15T01:16:38;5.57;;;2.33;;
69573;SDS011;62840;52.366;5.980;2023-04-15T01:19:04;6.70;;;3.15;;
69573;SDS011;62840;52.366;5.980;2023-04-15T01:21:35;6.28;;;2.80;;
69573;SDS011;62840;52.366;5.980;2023-04-15T01:24:07;5.97;;;2.67;;
69573;SDS011;62840;52.366;5.980;2023-04-15T01:26:43;7.80;;;2.50;;
69573;SDS011;62840;52.366;5.980;2023-04-15T01:29:10;5.75;;;2.65;;
69573;SDS011;62840;52.366;5.980;2023-04-15T01:31:36;7.68;;;2.33;;
69573;SDS011;62840;52.366;5.980;2023-04-15T01:34:02;6.80;;;2.77;;
69573;SDS011;62840;52.366;5.980;2023-04-15T01:36:27;5.55;;;2.50;;
69573;SDS011;62840;52.366;5.980;2023-04-15T01:38:56;5.13;;;2.47;;
69573;SDS011;62840;52.366;5.980;2023-04-15T01:41:26;5.35;;;2.90;;
69573;SDS011;62840;52.366;5.980;2023-04-15T01:43:56;5.15;;;2.67;;
69573;SDS011;62840;52.366;5.980;2023-04-15T01:46:22;6.35;;;2.72;;
69573;SDS011;62840;52.366;5.980;2023-04-15T01:48:48;5.72;;;2.30;;
69573;SDS011;62840;52.366;5.980;2023-04-15T01:51:14;6.03;;;2.63;;
69573;SDS011;62840;52.366;5.980;2023-04-15T01:53:44;5.75;;;2.72;;
69573;SDS011;62840;52.366;5.980;2023-04-15T01:56:10;4.88;;;2.60;;
69573;SDS011;62840;52.366;5.980;2023-04-15T01:58:38;5.25;;;2.50;;
69573;SDS011;62840;52.366;5.980;2023-04-15T02:01:06;6.30;;;2.67;;
69573;SDS011;62840;52.366;5.980;2023-04-15T02:03:35;5.93;;;2.83;;
69573;SDS011;62840;52.366;5.980;2023-04-15T02:06:02;7.22;;;2.70;;
69573;SDS011;62840;52.366;5.980;2023-04-15T02:08:28;5.82;;;2.88;;
69573;SDS011;62840;52.366;5.980;2023-04-15T02:10:53;6.35;;;2.53;;
69573;SDS011;62840;52.366;5.980;2023-04-15T02:13:19;5.25;;;2.42;;
69573;SDS011;62840;52.366;5.980;2023-04-15T02:15:46;5.63;;;2.58;;
69573;SDS011;62840;52.366;5.980;2023-04-15T02:18:17;6.70;;;2.83;;
69573;SDS011;62840;52.366;5.980;2023-04-15T02:20:51;7.75;;;2.97;;
69573;SDS011;62840;52.366;5.980;2023-04-15T02:23:20;4.63;;;2.17;;
69573;SDS011;62840;52.366;5.980;2023-04-15T02:25:46;5.00;;;2.30;;
69573;SDS011;62840;52.366;5.980;2023-04-15T02:28:11;5.40;;;2.53;;
69573;SDS011;62840;52.366;5.980;2023-04-15T02:30:37;6.20;;;2.42;;
69573;SDS011;62840;52.366;5.980;2023-04-15T02:33:03;5.80;;;2.50;;
69573;SDS011;62840;52.366;5.980;2023-04-15T02:35:31;5.50;;;2.33;;
69573;SDS011;62840;52.366;5.980;2023-04-15T02:37:57;4.60;;;2.55;;
69573;SDS011;62840;52.366;5.980;2023-04-15T02:40:23;8.43;;;2.80;;
69573;SDS011;62840;52.366;5.980;2023-04-15T02:42:50;5.68;;;2.78;;
69573;SDS011;62840;52.366;5.980;2023-04-15T02:45:18;5.35;;;2.42;;
69573;SDS011;62840;52.366;5.980;2023-04-15T02:47:44;6.60;;;2.60;;
69573;SDS011;62840;52.366;5.980;2023-04-15T02:50:10;6.10;;;3.73;;
69573;SDS011;62840;52.366;5.980;2023-04-15T02:52:40;4.80;;;2.33;;
69573;SDS011;62840;52.366;5.980;2023-04-15T02:55:09;5.10;;;2.40;;
69573;SDS011;62840;52.366;5.980;2023-04-15T02:57:35;5.05;;;2.58;;
69573;SDS011;62840;52.366;5.980;2023-04-15T03:00:02;7.05;;;2.80;;
69573;SDS011;62840;52.366;5.980;2023-04-15T03:02:32;6.10;;;2.30;;
69573;SDS011;62840;52.366;5.980;2023-04-15T03:04:58;6.65;;;2.38;;
69573;SDS011;62840;52.366;5.980;2023-04-15T03:07:26;5.28;;;2.17;;
69573;SDS011;62840;52.366;5.980;2023-04-15T03:10:01;5.57;;;2.50;;
69573;SDS011;62840;52.366;5.980;2023-04-15T03:12:27;4.20;;;2.17;;
69573;SDS011;62840;52.366;5.980;2023-04-15T03:14:55;5.10;;;2.20;;
69573;SDS011;62840;52.366;5.980;2023-04-15T03:17:22;6.00;;;2.20;;
69573;SDS011;62840;52.366;5.980;2023-04-15T03:19:49;5.35;;;2.22;;
69573;SDS011;62840;52.366;5.980;2023-04-15T03:22:14;7.40;;;2.70;;
69573;SDS011;62840;52.366;5.980;2023-04-15T03:24:40;6.57;;;2.83;;
69573;SDS011;62840;52.366;5.980;2023-04-15T03:27:09;5.85;;;2.55;;
69573;SDS011;62840;52.366;5.980;2023-04-15T03:29:35;5.93;;;2.85;;
69573;SDS011;62840;52.366;5.980;2023-04-15T03:32:03;4.87;;;2.30;;
69573;SDS011;62840;52.366;5.980;2023-04-15T03:34:30;5.57;;;2.40;;
69573;SDS011;62840;52.366;5.980;2023-04-15T03:37:06;5.20;;;2.53;;
69573;SDS011;62840;52.366;5.980;2023-04-15T03:39:32;6.20;;;3.03;;
69573;SDS011;62840;52.366;5.980;2023-04-15T03:41:58;6.35;;;3.05;;
69573;SDS011;62840;52.366;5.980;2023-04-15T03:44:27;6.47;;;2.50;;
69573;SDS011;62840;52.366;5.980;2023-04-15T03:46:55;6.45;;;3.08;;
69573;SDS011;62840;52.366;5.980;2023-04-15T03:49:21;7.00;;;3.00;;
69573;SDS011;62840;52.366;5.980;2023-04-15T03:51:49;5.57;;;2.53;;
69573;SDS011;62840;52.366;5.980;2023-04-15T03:54:17;5.35;;;2.50;;
69573;SDS011;62840;52.366;5.980;2023-04-15T03:56:43;8.18;;;3.15;;
69573;SDS011;62840;52.366;5.980;2023-04-15T03:59:09;7.83;;;2.80;;
69573;SDS011;62840;52.366;5.980;2023-04-15T04:01:37;6.07;;;2.60;;
69573;SDS011;62840;52.366;5.980;2023-04-15T04:04:03;7.45;;;3.00;;
69573;SDS011;62840;52.366;5.980;2023-04-15T04:06:29;8.03;;;3.77;;
69573;SDS011;62840;52.366;5.980;2023-04-15T04:08:59;6.22;;;2.72;;
69573;SDS011;62840;52.366;5.980;2023-04-15T04:11:24;7.43;;;3.70;;
69573;SDS011;62840;52.366;5.980;2023-04-15T04:13:50;10.05;;;3.60;;
69573;SDS011;62840;52.366;5.980;2023-04-15T04:16:16;7.93;;;3.28;;
69573;SDS011;62840;52.366;5.980;2023-04-15T04:18:44;8.45;;;3.97;;
69573;SDS011;62840;52.366;5.980;2023-04-15T04:21:10;7.47;;;3.00;;
69573;SDS011;62840;52.366;5.980;2023-04-15T04:23:36;6.50;;;3.42;;
69573;SDS011;62840;52.366;5.980;2023-04-15T04:26:04;6.70;;;3.20;;
69573;SDS011;62840;52.366;5.980;2023-04-15T04:28:30;6.28;;;2.97;;
69573;SDS011;62840;52.366;5.980;2023-04-15T04:30:56;8.90;;;4.20;;
69573;SDS011;62840;52.366;5.980;2023-04-15T04:33:21;9.63;;;4.25;;
69573;SDS011;62840;52.366;5.980;2023-04-15T04:35:50;8.07;;;4.15;;
69573;SDS011;62840;52.366;5.980;2023-04-15T04:38:16;8.50;;;4.33;;
69573;SDS011;62840;52.366;5.980;2023-04-15T04:40:42;8.93;;;4.65;;
69573;SDS011;62840;52.366;5.980;2023-04-15T04:43:08;9.35;;;5.10;;
69573;SDS011;62840;52.366;5.980;2023-04-15T04:45:34;8.17;;;4.07;;
69573;SDS011;62840;52.366;5.980;2023-04-15T04:48:00;10.65;;;4.10;;
69573;SDS011;62840;52.366;5.980;2023-04-15T04:50:30;9.25;;;4.32;;
69573;SDS011;62840;52.366;5.980;2023-04-15T04:52:59;9.10;;;4.72;;
69573;SDS011;62840;52.366;5.980;2023-04-15T04:55:26;7.93;;;4.32;;
69573;SDS011;62840;52.366;5.980;2023-04-15T04:57:52;9.45;;;4.53;;
69573;SDS011;62840;52.366;5.980;2023-04-15T05:00:18;9.88;;;5.00;;
69573;SDS011;62840;52.366;5.980;2023-04-15T05:02:47;12.10;;;5.20;;
69573;SDS011;62840;52.366;5.980;2023-04-15T05:05:13;9.68;;;5.05;;
69573;SDS011;62840;52.366;5.980;2023-04-15T05:07:43;9.82;;;5.35;;
69573;SDS011;62840;52.366;5.980;2023-04-15T05:10:12;9.68;;;5.15;;
69573;SDS011;62840;52.366;5.980;2023-04-15T05:12:40;12.18;;;5.10;;
69573;SDS011;62840;52.366;5.980;2023-04-15T05:15:08;11.20;;;5.70;;
69573;SDS011;62840;52.366;5.980;2023-04-15T05:17:36;10.25;;;5.55;;
69573;SDS011;62840;52.366;5.980;2023-04-15T05:20:02;11.80;;;5.40;;
69573;SDS011;62840;52.366;5.980;2023-04-15T05:22:29;9.95;;;5.18;;
69573;SDS011;62840;52.366;5.980;2023-04-15T05:24:57;9.90;;;5.47;;
69573;SDS011;62840;52.366;5.980;2023-04-15T05:27:27;11.40;;;5.80;;
69573;SDS011;62840;52.366;5.980;2023-04-15T05:29:53;10.15;;;5.57;;
69573;SDS011;62840;52.366;5.980;2023-04-15T05:32:19;10.57;;;5.63;;
69573;SDS011;62840;52.366;5.980;2023-04-15T05:34:45;12.02;;;5.75;;
69573;SDS011;62840;52.366;5.980;2023-04-15T05:37:15;11.00;;;5.72;;
69573;SDS011;62840;52.366;5.980;2023-04-15T05:39:42;11.45;;;6.10;;
69573;SDS011;62840;52.366;5.980;2023-04-15T05:42:08;10.65;;;5.75;;
69573;SDS011;62840;52.366;5.980;2023-04-15T05:44:39;9.93;;;5.20;;
69573;SDS011;62840;52.366;5.980;2023-04-15T05:47:05;9.90;;;5.47;;
69573;SDS011;62840;52.366;5.980;2023-04-15T05:49:31;11.00;;;6.03;;
69573;SDS011;62840;52.366;5.980;2023-04-15T05:52:02;10.85;;;5.50;;
69573;SDS011;62840;52.366;5.980;2023-04-15T05:54:33;9.15;;;4.57;;
69573;SDS011;62840;52.366;5.980;2023-04-15T05:56:59;10.18;;;5.40;;
69573;SDS011;62840;52.366;5.980;2023-04-15T05:59:29;10.55;;;5.43;;
69573;SDS011;62840;52.366;5.980;2023-04-15T06:01:58;10.35;;;5.60;;
69573;SDS011;62840;52.366;5.980;2023-04-15T06:04:24;11.43;;;5.72;;
69573;SDS011;62840;52.366;5.980;2023-04-15T06:06:49;10.10;;;4.90;;
69573;SDS011;62840;52.366;5.980;2023-04-15T06:09:15;10.00;;;5.50;;
69573;SDS011;62840;52.366;5.980;2023-04-15T06:11:44;11.10;;;5.47;;
69573;SDS011;62840;52.366;5.980;2023-04-15T06:14:10;10.27;;;5.18;;
69573;SDS011;62840;52.366;5.980;2023-04-15T06:16:36;9.30;;;5.18;;
69573;SDS011;62840;52.366;5.980;2023-04-15T06:19:09;12.83;;;6.10;;
69573;SDS011;62840;52.366;5.980;2023-04-15T06:21:35;11.93;;;5.90;;
69573;SDS011;62840;52.366;5.980;2023-04-15T06:24:01;12.68;;;5.97;;
69573;SDS011;62840;52.366;5.980;2023-04-15T06:26:27;12.32;;;5.90;;
69573;SDS011;62840;52.366;5.980;2023-04-15T06:28:53;13.13;;;6.43;;
69573;SDS011;62840;52.366;5.980;2023-04-15T06:31:19;11.00;;;5.53;;
69573;SDS011;62840;52.366;5.980;2023-04-15T06:33:49;12.93;;;6.15;;
69573;SDS011;62840;52.366;5.980;2023-04-15T06:36:18;12.23;;;6.60;;
69573;SDS011;62840;52.366;5.980;2023-04-15T06:38:51;12.23;;;6.07;;
69573;SDS011;62840;52.366;5.980;2023-04-15T06:41:20;12.60;;;5.70;;
69573;SDS011;62840;52.366;5.980;2023-04-15T06:43:45;13.57;;;5.63;;
69573;SDS011;62840;52.366;5.980;2023-04-15T06:46:11;11.80;;;5.70;;
69573;SDS011;62840;52.366;5.980;2023-04-15T06:48:39;12.68;;;6.07;;
69573;SDS011;62840;52.366;5.980;2023-04-15T06:51:08;12.18;;;5.32;;
69573;SDS011;62840;52.366;5.980;2023-04-15T06:53:38;11.30;;;5.67;;
69573;SDS011;62840;52.366;5.980;2023-04-15T06:56:07;12.02;;;5.15;;
69573;SDS011;62840;52.366;5.980;2023-04-15T06:58:35;11.00;;;4.82;;
69573;SDS011;62840;52.366;5.980;2023-04-15T07:01:01;10.88;;;5.00;;
69573;SDS011;62840;52.366;5.980;2023-04-15T07:03:28;9.98;;;4.90;;
69573;SDS011;62840;52.366;5.980;2023-04-15T07:05:54;9.88;;;5.07;;
69573;SDS011;62840;52.366;5.980;2023-04-15T07:08:20;12.18;;;4.85;;
69573;SDS011;62840;52.366;5.980;2023-04-15T07:10:51;8.32;;;4.10;;
69573;SDS011;62840;52.366;5.980;2023-04-15T07:13:19;10.40;;;4.50;;
69573;SDS011;62840;52.366;5.980;2023-04-15T07:15:49;8.40;;;4.23;;
69573;SDS011;62840;52.366;5.980;2023-04-15T07:18:15;7.72;;;4.07;;
69573;SDS011;62840;52.366;5.980;2023-04-15T07:20:42;9.32;;;3.67;;
69573;SDS011;62840;52.366;5.980;2023-04-15T07:23:07;7.57;;;3.93;;
69573;SDS011;62840;52.366;5.980;2023-04-15T07:25:33;7.68;;;3.75;;
69573;SDS011;62840;52.366;5.980;2023-04-15T07:28:02;7.20;;;3.47;;
69573;SDS011;62840;52.366;5.980;2023-04-15T07:30:28;9.00;;;3.30;;
69573;SDS011;62840;52.366;5.980;2023-04-15T07:32:59;6.80;;;3.13;;
69573;SDS011;62840;52.366;5.980;2023-04-15T07:35:26;6.30;;;3.10;;
69573;SDS011;62840;52.366;5.980;2023-04-15T07:37:53;6.68;;;2.60;;
69573;SDS011;62840;52.366;5.980;2023-04-15T07:40:25;5.88;;;2.47;;
69573;SDS011;62840;52.366;5.980;2023-04-15T07:42:54;4.90;;;2.10;;
69573;SDS011;62840;52.366;5.980;2023-04-15T07:45:24;4.88;;;2.10;;
69573;SDS011;62840;52.366;5.980;2023-04-15T07:47:50;5.13;;;2.03;;
69573;SDS011;62840;52.366;5.980;2023-04-15T07:50:16;4.20;;;1.83;;
69573;SDS011;62840;52.366;5.980;2023-04-15T07:52:44;4.55;;;1.55;;
69573;SDS011;62840;52.366;5.980;2023-04-15T07:55:10;5.50;;;2.10;;
69573;SDS011;62840;52.366;5.980;2023-04-15T07:57:39;4.72;;;1.73;;
69573;SDS011;62840;52.366;5.980;2023-04-15T08:00:06;5.18;;;2.00;;
69573;SDS011;62840;52.366;5.980;2023-04-15T08:02:36;4.30;;;2.13;;
69573;SDS011;62840;52.366;5.980;2023-04-15T08:05:02;5.30;;;2.20;;
69573;SDS011;62840;52.366;5.980;2023-04-15T08:07:33;5.13;;;2.20;;
69573;SDS011;62840;52.366;5.980;2023-04-15T08:10:02;6.55;;;2.13;;
69573;SDS011;62840;52.366;5.980;2023-04-15T08:12:28;4.20;;;1.95;;
69573;SDS011;62840;52.366;5.980;2023-04-15T08:15:00;5.25;;;2.05;;
69573;SDS011;62840;52.366;5.980;2023-04-15T08:17:26;5.80;;;2.38;;
69573;SDS011;62840;52.366;5.980;2023-04-15T08:19:55;5.90;;;2.57;;
69573;SDS011;62840;52.366;5.980;2023-04-15T08:22:24;4.90;;;2.17;;
69573;SDS011;62840;52.366;5.980;2023-04-15T08:24:50;6.10;;;2.70;;
69573;SDS011;62840;52.366;5.980;2023-04-15T08:27:17;5.15;;;2.35;;
69573;SDS011;62840;52.366;5.980;2023-04-15T08:29:44;5.60;;;2.50;;
69573;SDS011;62840;52.366;5.980;2023-04-15T08:32:09;5.28;;;2.40;;
69573;SDS011;62840;52.366;5.980;2023-04-15T08:34:41;6.72;;;3.05;;
69573;SDS011;62840;52.366;5.980;2023-04-15T08:37:12;5.90;;;2.75;;
69573;SDS011;62840;52.366;5.980;2023-04-15T08:39:38;5.97;;;2.88;;
69573;SDS011;62840;52.366;5.980;2023-04-15T08:42:06;5.93;;;2.78;;
69573;SDS011;62840;52.366;5.980;2023-04-15T08:44:40;5.82;;;2.53;;
69573;SDS011;62840;52.366;5.980;2023-04-15T08:47:11;5.20;;;2.65;;
69573;SDS011;62840;52.366;5.980;2023-04-15T08:49:39;5.45;;;2.60;;
69573;SDS011;62840;52.366;5.980;2023-04-15T08:52:06;5.90;;;2.30;;
69573;SDS011;62840;52.366;5.980;2023-04-15T08:54:36;5.00;;;2.63;;
69573;SDS011;62840;52.366;5.980;2023-04-15T08:57:02;5.00;;;2.33;;
69573;SDS011;62840;52.366;5.980;2023-04-15T08:59:29;6.68;;;2.78;;
69573;SDS011;62840;52.366;5.980;2023-04-15T09:01:55;5.05;;;2.10;;
69573;SDS011;62840;52.366;5.980;2023-04-15T09:04:29;7.00;;;2.80;;
69573;SDS011;62840;52.366;5.980;2023-04-15T09:06:56;5.72;;;2.40;;
69573;SDS011;62840;52.366;5.980;2023-04-15T09:09:32;5.75;;;2.70;;
69573;SDS011;62840;52.366;5.980;2023-04-15T09:12:00;6.80;;;2.78;;
69573;SDS011;62840;52.366;5.980;2023-04-15T09:14:27;6.28;;;2.83;;
69573;SDS011;62840;52.366;5.980;2023-04-15T09:16:57;6.65;;;2.58;;
69573;SDS011;62840;52.366;5.980;2023-04-15T09:19:25;6.15;;;2.60;;
69573;SDS011;62840;52.366;5.980;2023-04-15T09:21:52;5.40;;;2.60;;
69573;SDS011;62840;52.366;5.980;2023-04-15T09:24:21;5.43;;;2.30;;
69573;SDS011;62840;52.366;5.980;2023-04-15T09:26:50;5.37;;;2.43;;
69573;SDS011;62840;52.366;5.980;2023-04-15T09:29:17;8.05;;;2.35;;
69573;SDS011;62840;52.366;5.980;2023-04-15T09:31:44;5.32;;;2.35;;
69573;SDS011;62840;52.366;5.980;2023-04-15T09:34:10;6.10;;;2.55;;
69573;SDS011;62840;52.366;5.980;2023-04-15T09:36:51;6.47;;;2.80;;
69573;SDS011;62840;52.366;5.980;2023-04-15T09:39:26;6.15;;;2.55;;
69573;SDS011;62840;52.366;5.980;2023-04-15T09:42:15;5.93;;;2.60;;
69573;SDS011;62840;52.366;5.980;2023-04-15T09:44:42;5.32;;;2.58;;
69573;SDS011;62840;52.366;5.980;2023-04-15T09:47:08;6.20;;;2.73;;
69573;SDS011;62840;52.366;5.980;2023-04-15T09:49:34;5.80;;;2.70;;
69573;SDS011;62840;52.366;5.980;2023-04-15T09:52:02;6.35;;;2.50;;
69573;SDS011;62840;52.366;5.980;2023-04-15T09:54:37;6.47;;;2.63;;
69573;SDS011;62840;52.366;5.980;2023-04-15T09:57:07;6.97;;;2.80;;
69573;SDS011;62840;52.366;5.980;2023-04-15T09:59:33;5.93;;;2.50;;
69573;SDS011;62840;52.366;5.980;2023-04-15T10:01:59;5.55;;;2.58;;
69573;SDS011;62840;52.366;5.980;2023-04-15T10:04:29;5.30;;;2.30;;
69573;SDS011;62840;52.366;5.980;2023-04-15T10:06:59;5.90;;;2.30;;
69573;SDS011;62840;52.366;5.980;2023-04-15T10:09:27;4.65;;;2.20;;
69573;SDS011;62840;52.366;5.980;2023-04-15T10:11:55;6.18;;;2.03;;
69573;SDS011;62840;52.366;5.980;2023-04-15T10:14:23;4.72;;;2.30;;
69573;SDS011;62840;52.366;5.980;2023-04-15T10:16:52;5.57;;;2.35;;
69573;SDS011;62840;52.366;5.980;2023-04-15T10:19:25;4.55;;;1.98;;
69573;SDS011;62840;52.366;5.980;2023-04-15T10:21:56;4.70;;;2.15;;
69573;SDS011;62840;52.366;5.980;2023-04-15T10:24:23;4.43;;;2.10;;
69573;SDS011;62840;52.366;5.980;2023-04-15T10:26:49;6.57;;;2.15;;
69573;SDS011;62840;52.366;5.980;2023-04-15T10:29:16;5.30;;;1.85;;
69573;SDS011;62840;52.366;5.980;2023-04-15T10:31:46;3.50;;;1.67;;
69573;SDS011;62840;52.366;5.980;2023-04-15T10:34:13;3.85;;;2.03;;
69573;SDS011;62840;52.366;5.980;2023-04-15T10:36:40;4.07;;;1.50;;
69573;SDS011;62840;52.366;5.980;2023-04-15T10:39:37;5.38;;;2.03;;
69573;SDS011;62840;52.366;5.980;2023-04-15T10:42:08;4.30;;;1.80;;
69573;SDS011;62840;52.366;5.980;2023-04-15T10:44:35;4.88;;;2.08;;
69573;SDS011;62840;52.366;5.980;2023-04-15T10:47:08;4.85;;;1.73;;
69573;SDS011;62840;52.366;5.980;2023-04-15T10:49:36;3.60;;;1.70;;
69573;SDS011;62840;52.366;5.980;2023-04-15T10:52:09;3.95;;;1.75;;
69573;SDS011;62840;52.366;5.980;2023-04-15T10:54:35;4.13;;;1.63;;
69573;SDS011;62840;52.366;5.980;2023-04-15T10:57:07;4.15;;;2.33;;
69573;SDS011;62840;52.366;5.980;2023-04-15T11:02:45;4.28;;;1.83;;
69573;SDS011;62840;52.366;5.980;2023-04-15T11:05:13;4.50;;;1.70;;
69573;SDS011;62840;52.366;5.980;2023-04-15T11:07:41;4.32;;;2.22;;
69573;SDS011;62840;52.366;5.980;2023-04-15T11:13:18;4.90;;;1.83;;
69573;SDS011;62840;52.366;5.980;2023-04-15T11:15:49;4.95;;;2.28;;
69573;SDS011;62840;52.366;5.980;2023-04-15T11:18:18;5.70;;;2.03;;
69573;SDS011;62840;52.366;5.980;2023-04-15T11:20:46;4.35;;;1.80;;
69573;SDS011;62840;52.366;5.980;2023-04-15T11:23:14;4.38;;;1.88;;
69573;SDS011;62840;52.366;5.980;2023-04-15T11:25:42;4.35;;;1.88;;
69573;SDS011;62840;52.366;5.980;2023-04-15T11:28:09;5.00;;;2.05;;
69573;SDS011;62840;52.366;5.980;2023-04-15T11:30:36;3.85;;;1.45;;
69573;SDS011;62840;52.366;5.980;2023-04-15T11:33:04;4.50;;;2.03;;
69573;SDS011;62840;52.366;5.980;2023-04-15T11:35:35;3.42;;;1.63;;
69573;SDS011;62840;52.366;5.980;2023-04-15T11:38:01;3.45;;;1.52;;
69573;SDS011;62840;52.366;5.980;2023-04-15T11:40:29;3.90;;;1.50;;
69573;SDS011;62840;52.366;5.980;2023-04-15T11:43:05;4.32;;;1.40;;
69573;SDS011;62840;52.366;5.980;2023-04-15T11:45:33;5.45;;;1.67;;
69573;SDS011;62840;52.366;5.980;2023-04-15T11:48:05;3.63;;;1.80;;
69573;SDS011;62840;52.366;5.980;2023-04-15T11:50:36;5.93;;;2.10;;
69573;SDS011;62840;52.366;5.980;2023-04-15T11:53:04;3.70;;;1.77;;
69573;SDS011;62840;52.366;5.980;2023-04-15T11:55:40;4.93;;;1.90;;
69573;SDS011;62840;52.366;5.980;2023-04-15T11:58:07;4.10;;;1.38;;
69573;SDS011;62840;52.366;5.980;2023-04-15T12:00:35;3.88;;;1.73;;
69573;SDS011;62840;52.366;5.980;2023-04-15T12:03:11;4.68;;;1.73;;
69573;SDS011;62840;52.366;5.980;2023-04-15T12:11:35;3.97;;;1.30;;
69573;SDS011;62840;52.366;5.980;2023-04-15T12:14:11;5.70;;;1.40;;
69573;SDS011;62840;52.366;5.980;2023-04-15T12:16:45;3.00;;;1.17;;
69573;SDS011;62840;52.366;5.980;2023-04-15T12:19:14;3.17;;;1.30;;
69573;SDS011;62840;52.366;5.980;2023-04-15T12:21:46;3.72;;;1.08;;
69573;SDS011;62840;52.366;5.980;2023-04-15T12:24:12;3.47;;;1.10;;
69573;SDS011;62840;52.366;5.980;2023-04-15T12:26:42;5.30;;;1.40;;
69573;SDS011;62840;52.366;5.980;2023-04-15T12:29:10;3.50;;;1.08;;
69573;SDS011;62840;52.366;5.980;2023-04-15T12:31:45;4.10;;;1.20;;
69573;SDS011;62840;52.366;5.980;2023-04-15T12:34:16;4.47;;;1.27;;
69573;SDS011;62840;52.366;5.980;2023-04-15T12:36:45;3.13;;;1.42;;
69573;SDS011;62840;52.366;5.980;2023-04-15T12:39:11;4.25;;;0.93;;
69573;SDS011;62840;52.366;5.980;2023-04-15T12:41:37;3.55;;;1.08;;
69573;SDS011;62840;52.366;5.980;2023-04-15T12:44:03;3.20;;;1.20;;
69573;SDS011;62840;52.366;5.980;2023-04-15T12:46:29;3.42;;;1.45;;
69573;SDS011;62840;52.366;5.980;2023-04-15T12:48:55;3.13;;;1.20;;
69573;SDS011;62840;52.366;5.980;2023-04-15T12:51:21;3.00;;;1.05;;
69573;SDS011;62840;52.366;5.980;2023-04-15T12:53:49;4.10;;;1.20;;
69573;SDS011;62840;52.366;5.980;2023-04-15T12:56:16;2.80;;;1.20;;
69573;SDS011;62840;52.366;5.980;2023-04-15T12:58:42;2.50;;;0.97;;
69573;SDS011;62840;52.366;5.980;2023-04-15T13:01:07;4.72;;;1.35;;
69573;SDS011;62840;52.366;5.980;2023-04-15T13:03:33;3.35;;;1.13;;
69573;SDS011;62840;52.366;5.980;2023-04-15T13:05:59;3.07;;;1.10;;
69573;SDS011;62840;52.366;5.980;2023-04-15T13:08:25;4.28;;;1.15;;
69573;SDS011;62840;52.366;5.980;2023-04-15T13:10:53;3.30;;;1.23;;
69573;SDS011;62840;52.366;5.980;2023-04-15T13:13:20;4.60;;;1.40;;
69573;SDS011;62840;52.366;5.980;2023-04-15T13:15:45;3.17;;;1.13;;
69573;SDS011;62840;52.366;5.980;2023-04-15T13:18:11;3.08;;;1.60;;
69573;SDS011;62840;52.366;5.980;2023-04-15T13:20:37;3.27;;;1.47;;
69573;SDS011;62840;52.366;5.980;2023-04-15T13:23:03;4.38;;;1.30;;
69573;SDS011;62840;52.366;5.980;2023-04-15T13:25:29;4.15;;;1.50;;
69573;SDS011;62840;52.366;5.980;2023-04-15T13:27:57;3.83;;;1.50;;
69573;SDS011;62840;52.366;5.980;2023-04-15T13:30:23;4.22;;;1.45;;
69573;SDS011;62840;52.366;5.980;2023-04-15T13:32:49;5.43;;;2.05;;
69573;SDS011;62840;52.366;5.980;2023-04-15T13:35:15;4.05;;;1.52;;
69573;SDS011;62840;52.366;5.980;2023-04-15T13:37:40;3.38;;;1.38;;
69573;SDS011;62840;52.366;5.980;2023-04-15T13:40:07;4.07;;;1.50;;
69573;SDS011;62840;52.366;5.980;2023-04-15T13:42:34;3.40;;;1.45;;
69573;SDS011;62840;52.366;5.980;2023-04-15T13:45:03;4.28;;;1.58;;
69573;SDS011;62840;52.366;5.980;2023-04-15T13:47:30;4.67;;;1.70;;
69573;SDS011;62840;52.366;5.980;2023-04-15T13:49:56;3.95;;;1.40;;
69573;SDS011;62840;52.366;5.980;2023-04-15T13:52:22;3.92;;;1.50;;
69573;SDS011;62840;52.366;5.980;2023-04-15T13:54:50;4.93;;;1.67;;
69573;SDS011;62840;52.366;5.980;2023-04-15T13:57:16;4.55;;;1.30;;
69573;SDS011;62840;52.366;5.980;2023-04-15T13:59:42;5.60;;;2.05;;
69573;SDS011;62840;52.366;5.980;2023-04-15T14:02:10;4.45;;;1.65;;
69573;SDS011;62840;52.366;5.980;2023-04-15T14:04:36;4.80;;;1.30;;
69573;SDS011;62840;52.366;5.980;2023-04-15T14:07:02;6.00;;;1.60;;
69573;SDS011;62840;52.366;5.980;2023-04-15T14:09:28;5.40;;;1.85;;
69573;SDS011;62840;52.366;5.980;2023-04-15T14:11:54;5.03;;;1.70;;
69573;SDS011;62840;52.366;5.980;2023-04-15T14:14:20;6.28;;;2.40;;
69573;SDS011;62840;52.366;5.980;2023-04-15T14:16:46;5.65;;;2.05;;
69573;SDS011;62840;52.366;5.980;2023-04-15T14:19:14;7.13;;;1.60;;
69573;SDS011;62840;52.366;5.980;2023-04-15T14:21:40;4.47;;;1.77;;
69573;SDS011;62840;52.366;5.980;2023-04-15T14:24:06;4.95;;;1.30;;
69573;SDS011;62840;52.366;5.980;2023-04-15T14:26:31;3.97;;;1.30;;
69573;SDS011;62840;52.366;5.980;2023-04-15T14:28:57;6.90;;;1.65;;
69573;SDS011;62840;52.366;5.980;2023-04-15T14:31:23;5.23;;;1.50;;
69573;SDS011;62840;52.366;5.980;2023-04-15T14:33:49;3.60;;;1.33;;
69573;SDS011;62840;52.366;5.980;2023-04-15T14:36:17;7.05;;;1.50;;
69573;SDS011;62840;52.366;5.980;2023-04-15T14:38:43;3.80;;;1.17;;
69573;SDS011;62840;52.366;5.980;2023-04-15T14:41:09;4.38;;;1.20;;
69573;SDS011;62840;52.366;5.980;2023-04-15T14:43:35;7.20;;;1.30;;
69573;SDS011;62840;52.366;5.980;2023-04-15T14:46:01;5.97;;;1.27;;
69573;SDS011;62840;52.366;5.980;2023-04-15T14:48:27;5.15;;;1.40;;
69573;SDS011;62840;52.366;5.980;2023-04-15T14:50:55;5.38;;;1.15;;
69573;SDS011;62840;52.366;5.980;2023-04-15T14:53:24;4.28;;;1.10;;
69573;SDS011;62840;52.366;5.980;2023-04-15T14:55:50;3.63;;;1.10;;
69573;SDS011;62840;52.366;5.980;2023-04-15T14:58:16;5.78;;;1.63;;
69573;SDS011;62840;52.366;5.980;2023-04-15T15:00:42;4.65;;;0.98;;